sensor_id;sensor_type;location;lat;lon;timestamp;pressure;altitude;pressure_sealevel;temperature;humidity
65359;BME280;52491;45.900;6.346;2023-01-15T00:00:50;93644.03;;;23.61;30.13
65359;BME280;52491;45.900;6.346;2023-01-15T00:03:16;93636.84;;;23.62;30.00
65359;BME280;52491;45.900;6.346;2023-01-15T00:05:41;93634.19;;;23.62;30.24
65359;BME280;52491;45.900;6.346;2023-01-15T00:08:07;93635.75;;;23.63;29.94
65359;BME280;52491;45.900;6.346;2023-01-15T00:10:34;93649.06;;;23.63;29.96
65359;BME280;52491;45.900;6.346;2023-01-15T00:12:59;93662.38;;;23.63;30.01
65359;BME280;52491;45.900;6.346;2023-01-15T00:15:25;93660.78;;;23.62;29.98
65359;BME280;52491;45.900;6.346;2023-01-15T00:17:51;93674.34;;;23.60;29.99
65359;BME280;52491;45.900;6.346;2023-01-15T00:20:16;93667.44;;;23.59;29.96
65359;BME280;52491;45.900;6.346;2023-01-15T00:22:42;93663.69;;;23.60;29.97
65359;BME280;52491;45.900;6.346;2023-01-15T00:25:09;93665.31;;;23.61;30.16
65359;BME280;52491;45.900;6.346;2023-01-15T00:27:54;93652.00;;;23.56;30.13
65359;BME280;52491;45.900;6.346;2023-01-15T00:30:20;93660.53;;;23.58;29.99
65359;BME280;52491;45.900;6.346;2023-01-15T00:32:46;93656.00;;;23.59;29.86
65359;BME280;52491;45.900;6.346;2023-01-15T00:35:22;93661.03;;;23.60;29.70
65359;BME280;52491;45.900;6.346;2023-01-15T00:37:48;93649.06;;;23.58;29.90
65359;BME280;52491;45.900;6.346;2023-01-15T00:40:15;93657.88;;;23.58;30.00
65359;BME280;52491;45.900;6.346;2023-01-15T00:42:41;93653.59;;;23.57;29.74
65359;BME280;52491;45.900;6.346;2023-01-15T00:45:08;93654.38;;;23.58;29.81
65359;BME280;52491;45.900;6.346;2023-01-15T00:47:39;93655.19;;;23.58;29.91
65359;BME280;52491;45.900;6.346;2023-01-15T00:50:07;93658.09;;;23.57;29.99
65359;BME280;52491;45.900;6.346;2023-01-15T00:52:33;93664.50;;;23.56;29.81
65359;BME280;52491;45.900;6.346;2023-01-15T00:54:59;93672.50;;;23.56;29.84
65359;BME280;52491;45.900;6.346;2023-01-15T00:57:25;93676.19;;;23.55;29.82
65359;BME280;52491;45.900;6.346;2023-01-15T00:59:50;93678.84;;;23.55;29.71
65359;BME280;52491;45.900;6.346;2023-01-15T01:02:16;93670.06;;;23.54;29.83
65359;BME280;52491;45.900;6.346;2023-01-15T01:04:42;93657.06;;;23.53;29.76
65359;BME280;52491;45.900;6.346;2023-01-15T01:07:07;93655.69;;;23.55;29.81
65359;BME280;52491;45.900;6.346;2023-01-15T01:09:33;93636.56;;;23.53;29.79
65359;BME280;52491;45.900;6.346;2023-01-15T01:11:59;93629.38;;;23.54;29.76
65359;BME280;52491;45.900;6.346;2023-01-15T01:14:25;93628.56;;;23.53;29.82
65359;BME280;52491;45.900;6.346;2023-01-15T01:16:51;93629.63;;;23.52;29.67
65359;BME280;52491;45.900;6.346;2023-01-15T01:19:19;93619.78;;;23.53;29.65
65359;BME280;52491;45.900;6.346;2023-01-15T01:21:46;93621.63;;;23.52;29.70
65359;BME280;52491;45.900;6.346;2023-01-15T01:24:14;93624.03;;;23.54;29.65
65359;BME280;52491;45.900;6.346;2023-01-15T01:26:40;93618.19;;;23.52;29.68
65359;BME280;52491;45.900;6.346;2023-01-15T01:29:14;93617.13;;;23.53;29.56
65359;BME280;52491;45.900;6.346;2023-01-15T01:31:40;93628.81;;;23.52;29.68
65359;BME280;52491;45.900;6.346;2023-01-15T01:34:05;93625.13;;;23.53;29.68
65359;BME280;52491;45.900;6.346;2023-01-15T01:36:33;93618.72;;;23.54;29.65
65359;BME280;52491;45.900;6.346;2023-01-15T01:39:00;93625.13;;;23.53;29.61
65359;BME280;52491;45.900;6.346;2023-01-15T01:41:26;93614.47;;;23.53;29.67
65359;BME280;52491;45.900;6.346;2023-01-15T01:46:22;93604.88;;;23.52;29.55
65359;BME280;52491;45.900;6.346;2023-01-15T01:48:54;93593.19;;;23.53;29.59
65359;BME280;52491;45.900;6.346;2023-01-15T01:51:25;93587.03;;;23.52;29.64
65359;BME280;52491;45.900;6.346;2023-01-15T01:53:51;93604.34;;;23.50;29.70
65359;BME280;52491;45.900;6.346;2023-01-15T01:56:18;93592.91;;;23.49;29.54
65359;BME280;52491;45.900;6.346;2023-01-15T01:58:50;93584.66;;;23.51;29.55
65359;BME280;52491;45.900;6.346;2023-01-15T02:01:18;93594.50;;;23.50;29.57
65359;BME280;52491;45.900;6.346;2023-01-15T02:03:44;93576.41;;;23.47;29.66
65359;BME280;52491;45.900;6.346;2023-01-15T02:06:12;93577.72;;;23.50;29.48
65359;BME280;52491;45.900;6.346;2023-01-15T02:08:38;93575.34;;;23.48;29.61
65359;BME280;52491;45.900;6.346;2023-01-15T02:11:06;93569.50;;;23.51;29.56
65359;BME280;52491;45.900;6.346;2023-01-15T02:13:40;93563.38;;;23.51;29.54
65359;BME280;52491;45.900;6.346;2023-01-15T02:16:21;93579.34;;;23.51;29.57
65359;BME280;52491;45.900;6.346;2023-01-15T02:22:34;93583.03;;;23.50;29.56
65359;BME280;52491;45.900;6.346;2023-01-15T02:25:09;93585.72;;;23.50;29.61
65359;BME280;52491;45.900;6.346;2023-01-15T02:27:43;93583.88;;;23.50;29.46
65359;BME280;52491;45.900;6.346;2023-01-15T02:30:16;93590.78;;;23.51;29.40
65359;BME280;52491;45.900;6.346;2023-01-15T02:33:03;93583.56;;;23.46;29.52
65359;BME280;52491;45.900;6.346;2023-01-15T02:36:00;93584.13;;;23.49;29.52
65359;BME280;52491;45.900;6.346;2023-01-15T02:38:38;93580.38;;;23.50;29.51
65359;BME280;52491;45.900;6.346;2023-01-15T02:41:07;93580.38;;;23.50;29.55
65359;BME280;52491;45.900;6.346;2023-01-15T02:43:43;93578.00;;;23.48;29.37
65359;BME280;52491;45.900;6.346;2023-01-15T02:46:13;93578.81;;;23.49;29.55
65359;BME280;52491;45.900;6.346;2023-01-15T02:48:40;93575.34;;;23.48;29.69
65359;BME280;52491;45.900;6.346;2023-01-15T02:51:19;93569.75;;;23.50;29.67
65359;BME280;52491;45.900;6.346;2023-01-15T02:53:48;93575.59;;;23.46;29.72
65359;BME280;52491;45.900;6.346;2023-01-15T02:56:19;93566.56;;;23.48;29.89
65359;BME280;52491;45.900;6.346;2023-01-15T02:58:50;93561.25;;;23.48;29.58
65359;BME280;52491;45.900;6.346;2023-01-15T03:01:24;93560.97;;;23.49;29.59
65359;BME280;52491;45.900;6.346;2023-01-15T03:03:59;93566.28;;;23.49;29.49
65359;BME280;52491;45.900;6.346;2023-01-15T03:06:40;93563.91;;;23.48;29.61
65359;BME280;52491;45.900;6.346;2023-01-15T03:09:08;93543.66;;;23.46;29.69
65359;BME280;52491;45.900;6.346;2023-01-15T03:11:38;93553.00;;;23.49;29.67
65359;BME280;52491;45.900;6.346;2023-01-15T03:14:12;93554.84;;;23.49;29.62
65359;BME280;52491;45.900;6.346;2023-01-15T03:17:01;93554.59;;;23.50;29.60
65359;BME280;52491;45.900;6.346;2023-01-15T03:24:58;93539.69;;;23.49;29.66
65359;BME280;52491;45.900;6.346;2023-01-15T03:27:22;93538.88;;;23.49;29.80
65359;BME280;52491;45.900;6.346;2023-01-15T03:29:51;93527.19;;;23.50;29.96
65359;BME280;52491;45.900;6.346;2023-01-15T03:32:19;93529.84;;;23.50;30.01
65359;BME280;52491;45.900;6.346;2023-01-15T03:34:48;93526.13;;;23.51;30.05
65359;BME280;52491;45.900;6.346;2023-01-15T03:37:14;93529.84;;;23.50;30.01
65359;BME280;52491;45.900;6.346;2023-01-15T03:39:41;93529.84;;;23.50;30.14
65359;BME280;52491;45.900;6.346;2023-01-15T03:45:25;93521.84;;;23.50;30.30
65359;BME280;52491;45.900;6.346;2023-01-15T03:48:47;93509.91;;;23.47;30.19
65359;BME280;52491;45.900;6.346;2023-01-15T03:51:11;93503.75;;;23.46;30.36
65359;BME280;52491;45.900;6.346;2023-01-15T03:53:52;93489.66;;;23.46;30.23
65359;BME280;52491;45.900;6.346;2023-01-15T03:56:30;93487.28;;;23.44;30.40
65359;BME280;52491;45.900;6.346;2023-01-15T03:59:17;93473.16;;;23.44;30.32
65359;BME280;52491;45.900;6.346;2023-01-15T04:01:48;93473.44;;;23.42;30.47
65359;BME280;52491;45.900;6.346;2023-01-15T04:04:15;93465.19;;;23.44;30.52
65359;BME280;52491;45.900;6.346;2023-01-15T04:06:41;93468.13;;;23.48;30.29
65359;BME280;52491;45.900;6.346;2023-01-15T04:09:09;93468.38;;;23.51;30.51
65359;BME280;52491;45.900;6.346;2023-01-15T04:11:36;93456.94;;;23.51;30.39
65359;BME280;52491;45.900;6.346;2023-01-15T04:14:02;93450.31;;;23.53;30.24
65359;BME280;52491;45.900;6.346;2023-01-15T04:16:29;93452.69;;;23.55;30.36
65359;BME280;52491;45.900;6.346;2023-01-15T04:18:55;93457.75;;;23.56;30.44
65359;BME280;52491;45.900;6.346;2023-01-15T04:21:21;93453.47;;;23.55;30.38
65359;BME280;52491;45.900;6.346;2023-01-15T04:23:47;93458.00;;;23.55;30.43
65359;BME280;52491;45.900;6.346;2023-01-15T04:26:13;93448.44;;;23.54;30.33
65359;BME280;52491;45.900;6.346;2023-01-15T04:28:39;93433.00;;;23.56;30.38
65359;BME280;52491;45.900;6.346;2023-01-15T04:31:05;93437.50;;;23.55;30.39
65359;BME280;52491;45.900;6.346;2023-01-15T04:33:31;93438.34;;;23.56;30.29
65359;BME280;52491;45.900;6.346;2023-01-15T04:36:01;93429.81;;;23.59;30.56
65359;BME280;52491;45.900;6.346;2023-01-15T04:38:27;93426.59;;;23.57;30.55
65359;BME280;52491;45.900;6.346;2023-01-15T04:40:53;93409.31;;;23.54;30.54
65359;BME280;52491;45.900;6.346;2023-01-15T04:43:37;93417.28;;;23.54;30.48
65359;BME280;52491;45.900;6.346;2023-01-15T04:46:23;93411.19;;;23.54;30.66
65359;BME280;52491;45.900;6.346;2023-01-15T04:48:48;93405.56;;;23.55;30.67
65359;BME280;52491;45.900;6.346;2023-01-15T04:51:14;93400.25;;;23.55;30.62
65359;BME280;52491;45.900;6.346;2023-01-15T04:53:40;93411.19;;;23.54;30.63
65359;BME280;52491;45.900;6.346;2023-01-15T04:56:06;93394.16;;;23.55;30.59
65359;BME280;52491;45.900;6.346;2023-01-15T04:58:32;93406.41;;;23.56;30.65
65359;BME280;52491;45.900;6.346;2023-01-15T05:00:58;93401.88;;;23.56;30.72
65359;BME280;52491;45.900;6.346;2023-01-15T05:03:29;93390.16;;;23.57;30.65
65359;BME280;52491;45.900;6.346;2023-01-15T05:06:00;93373.13;;;23.58;30.51
65359;BME280;52491;45.900;6.346;2023-01-15T05:08:27;93398.66;;;23.59;30.60
65359;BME280;52491;45.900;6.346;2023-01-15T05:10:52;93379.25;;;23.59;30.64
65359;BME280;52491;45.900;6.346;2023-01-15T05:13:18;93386.16;;;23.60;30.66
65359;BME280;52491;45.900;6.346;2023-01-15T05:15:44;93373.66;;;23.60;30.66
65359;BME280;52491;45.900;6.346;2023-01-15T05:18:11;93370.19;;;23.60;30.58
65359;BME280;52491;45.900;6.346;2023-01-15T05:20:41;93369.94;;;23.61;30.49
65359;BME280;52491;45.900;6.346;2023-01-15T05:23:07;93359.00;;;23.63;30.51
65359;BME280;52491;45.900;6.346;2023-01-15T05:25:35;93345.44;;;23.64;30.46
65359;BME280;52491;45.900;6.346;2023-01-15T05:28:01;93353.69;;;23.63;30.52
65359;BME280;52491;45.900;6.346;2023-01-15T05:30:27;93329.47;;;23.64;30.50
65359;BME280;52491;45.900;6.346;2023-01-15T05:32:52;93337.97;;;23.66;30.51
65359;BME280;52491;45.900;6.346;2023-01-15T05:35:18;93320.16;;;23.67;30.65
65359;BME280;52491;45.900;6.346;2023-01-15T05:37:43;93338.78;;;23.67;30.68
65359;BME280;52491;45.900;6.346;2023-01-15T05:40:09;93322.81;;;23.67;30.73
65359;BME280;52491;45.900;6.346;2023-01-15T05:42:35;93321.19;;;23.66;30.64
65359;BME280;52491;45.900;6.346;2023-01-15T05:45:01;93322.81;;;23.67;30.61
65359;BME280;52491;45.900;6.346;2023-01-15T05:47:26;93340.38;;;23.68;30.53
65359;BME280;52491;45.900;6.346;2023-01-15T05:49:52;93332.38;;;23.68;30.55
65359;BME280;52491;45.900;6.346;2023-01-15T05:52:17;93326.53;;;23.66;30.48
65359;BME280;52491;45.900;6.346;2023-01-15T05:54:43;93335.59;;;23.65;30.45
65359;BME280;52491;45.900;6.346;2023-01-15T05:57:10;93326.28;;;23.67;30.59
65359;BME280;52491;45.900;6.346;2023-01-15T05:59:37;93333.47;;;23.67;30.56
65359;BME280;52491;45.900;6.346;2023-01-15T06:02:03;93324.66;;;23.66;30.62
65359;BME280;52491;45.900;6.346;2023-01-15T06:04:28;93331.59;;;23.67;30.51
65359;BME280;52491;45.900;6.346;2023-01-15T06:06:55;93322.81;;;23.67;30.75
65359;BME280;52491;45.900;6.346;2023-01-15T06:09:21;93317.50;;;23.67;30.34
65359;BME280;52491;45.900;6.346;2023-01-15T06:11:48;93309.50;;;23.67;30.50
65359;BME280;52491;45.900;6.346;2023-01-15T06:14:14;93316.41;;;23.68;30.34
65359;BME280;52491;45.900;6.346;2023-01-15T06:16:40;93321.75;;;23.68;30.49
65359;BME280;52491;45.900;6.346;2023-01-15T06:19:07;93328.66;;;23.69;30.40
65359;BME280;52491;45.900;6.346;2023-01-15T06:21:34;93333.97;;;23.69;30.47
65359;BME280;52491;45.900;6.346;2023-01-15T06:24:00;93322.53;;;23.68;30.33
65359;BME280;52491;45.900;6.346;2023-01-15T06:26:26;93324.16;;;23.70;30.47
65359;BME280;52491;45.900;6.346;2023-01-15T06:28:52;93320.66;;;23.69;30.38
65359;BME280;52491;45.900;6.346;2023-01-15T06:31:19;93330.25;;;23.70;30.41
65359;BME280;52491;45.900;6.346;2023-01-15T06:33:46;93316.94;;;23.70;30.33
65359;BME280;52491;45.900;6.346;2023-01-15T06:36:17;93323.63;;;23.73;30.15
65359;BME280;52491;45.900;6.346;2023-01-15T06:38:43;93323.09;;;23.71;30.34
65359;BME280;52491;45.900;6.346;2023-01-15T06:41:12;93328.13;;;23.72;30.21
65359;BME280;52491;45.900;6.346;2023-01-15T06:43:57;93324.94;;;23.70;30.30
65359;BME280;52491;45.900;6.346;2023-01-15T06:46:51;93325.97;;;23.69;30.29
65359;BME280;52491;45.900;6.346;2023-01-15T06:49:36;93332.66;;;23.72;30.25
65359;BME280;52491;45.900;6.346;2023-01-15T06:52:03;93312.16;;;23.72;30.20
65359;BME280;52491;45.900;6.346;2023-01-15T06:54:29;93323.09;;;23.71;30.50
65359;BME280;52491;45.900;6.346;2023-01-15T06:56:55;93325.47;;;23.72;30.21
65359;BME280;52491;45.900;6.346;2023-01-15T06:59:21;93306.03;;;23.72;30.33
65359;BME280;52491;45.900;6.346;2023-01-15T07:01:47;93309.50;;;23.72;30.18
65359;BME280;52491;45.900;6.346;2023-01-15T07:04:13;93297.28;;;23.71;30.41
65359;BME280;52491;45.900;6.346;2023-01-15T07:06:39;93304.19;;;23.72;30.45
65359;BME280;52491;45.900;6.346;2023-01-15T07:09:05;93321.75;;;23.73;30.49
65359;BME280;52491;45.900;6.346;2023-01-15T07:11:30;93312.16;;;23.72;30.28
65359;BME280;52491;45.900;6.346;2023-01-15T07:13:56;93320.97;;;23.73;30.22
65359;BME280;52491;45.900;6.346;2023-01-15T07:16:32;93320.69;;;23.74;30.25
65359;BME280;52491;45.900;6.346;2023-01-15T07:18:58;93308.44;;;23.73;30.28
65359;BME280;52491;45.900;6.346;2023-01-15T07:21:23;93303.66;;;23.75;30.20
65359;BME280;52491;45.900;6.346;2023-01-15T07:23:49;93305.00;;;23.73;30.16
65359;BME280;52491;45.900;6.346;2023-01-15T07:26:15;93303.66;;;23.75;30.47
65359;BME280;52491;45.900;6.346;2023-01-15T07:28:40;93302.06;;;23.74;30.10
65359;BME280;52491;45.900;6.346;2023-01-15T07:31:06;93312.44;;;23.76;30.20
65359;BME280;52491;45.900;6.346;2023-01-15T07:33:32;93285.03;;;23.75;30.06
65359;BME280;52491;45.900;6.346;2023-01-15T07:36:00;93279.41;;;23.77;30.03
65359;BME280;52491;45.900;6.346;2023-01-15T07:38:27;93274.09;;;23.77;30.27
65359;BME280;52491;45.900;6.346;2023-01-15T07:40:56;93257.03;;;23.78;30.19
65359;BME280;52491;45.900;6.346;2023-01-15T07:43:51;93249.34;;;23.76;30.27
65359;BME280;52491;45.900;6.346;2023-01-15T07:46:35;93272.22;;;23.77;30.04
65359;BME280;52491;45.900;6.346;2023-01-15T07:49:19;93261.56;;;23.77;30.42
65359;BME280;52491;45.900;6.346;2023-01-15T07:52:04;93259.19;;;23.76;30.28
65359;BME280;52491;45.900;6.346;2023-01-15T07:54:29;93262.66;;;23.76;30.19
65359;BME280;52491;45.900;6.346;2023-01-15T07:56:55;93239.22;;;23.78;30.46
65359;BME280;52491;45.900;6.346;2023-01-15T07:59:22;93242.94;;;23.77;30.29
65359;BME280;52491;45.900;6.346;2023-01-15T08:01:49;93241.38;;;23.76;30.50
65359;BME280;52491;45.900;6.346;2023-01-15T08:04:14;93229.13;;;23.75;30.49
65359;BME280;52491;45.900;6.346;2023-01-15T08:06:40;93233.63;;;23.75;30.40
65359;BME280;52491;45.900;6.346;2023-01-15T08:09:05;93232.06;;;23.74;30.49
65359;BME280;52491;45.900;6.346;2023-01-15T08:11:32;93232.84;;;23.74;30.40
65359;BME280;52491;45.900;6.346;2023-01-15T08:14:17;93229.66;;;23.72;30.12
65359;BME280;52491;45.900;6.346;2023-01-15T08:17:02;93242.97;;;23.67;30.38
65359;BME280;52491;45.900;6.346;2023-01-15T08:19:28;93239.50;;;23.66;30.51
65359;BME280;52491;45.900;6.346;2023-01-15T08:21:56;93235.25;;;23.65;30.44
65359;BME280;52491;45.900;6.346;2023-01-15T08:24:23;93227.28;;;23.65;30.14
65359;BME280;52491;45.900;6.346;2023-01-15T08:26:49;93251.22;;;23.65;30.24
65359;BME280;52491;45.900;6.346;2023-01-15T08:29:16;93255.75;;;23.65;30.65
65359;BME280;52491;45.900;6.346;2023-01-15T08:31:42;93264.28;;;23.67;30.73
65359;BME280;52491;45.900;6.346;2023-01-15T08:34:09;93274.09;;;23.66;30.67
65359;BME280;52491;45.900;6.346;2023-01-15T08:36:36;93277.84;;;23.65;30.48
65359;BME280;52491;45.900;6.346;2023-01-15T08:39:03;93293.81;;;23.65;30.47
65359;BME280;52491;45.900;6.346;2023-01-15T08:41:30;93285.28;;;23.63;30.69
65359;BME280;52491;45.900;6.346;2023-01-15T08:43:56;93278.94;;;23.59;31.01
65359;BME280;52491;45.900;6.346;2023-01-15T08:46:21;93280.25;;;23.62;30.17
65359;BME280;52491;45.900;6.346;2023-01-15T08:48:47;93256.00;;;23.63;30.65
65359;BME280;52491;45.900;6.346;2023-01-15T08:51:14;93249.38;;;23.61;30.33
65359;BME280;52491;45.900;6.346;2023-01-15T08:53:44;93243.53;;;23.59;30.46
65359;BME280;52491;45.900;6.346;2023-01-15T08:56:15;93253.13;;;23.60;30.15
65359;BME280;52491;45.900;6.346;2023-01-15T08:58:41;93235.03;;;23.57;30.41
65359;BME280;52491;45.900;6.346;2023-01-15T09:01:09;93239.28;;;23.58;30.44
65359;BME280;52491;45.900;6.346;2023-01-15T09:03:36;93235.81;;;23.57;30.53
65359;BME280;52491;45.900;6.346;2023-01-15T09:06:02;93232.38;;;23.57;30.47
65359;BME280;52491;45.900;6.346;2023-01-15T09:08:28;93227.84;;;23.57;30.38
65359;BME280;52491;45.900;6.346;2023-01-15T09:11:00;93199.09;;;23.59;30.41
65359;BME280;52491;45.900;6.346;2023-01-15T09:13:27;93205.50;;;23.58;30.32
65359;BME280;52491;45.900;6.346;2023-01-15T09:15:57;93225.19;;;23.57;30.73
65359;BME280;52491;45.900;6.346;2023-01-15T09:18:23;93231.81;;;23.60;30.69
65359;BME280;52491;45.900;6.346;2023-01-15T09:20:49;93228.38;;;23.59;30.48
65359;BME280;52491;45.900;6.346;2023-01-15T09:23:15;93256.84;;;23.59;30.84
65359;BME280;52491;45.900;6.346;2023-01-15T09:25:53;93307.91;;;23.61;30.27
65359;BME280;52491;45.900;6.346;2023-01-15T09:28:20;93357.16;;;23.58;30.14
65359;BME280;52491;45.900;6.346;2023-01-15T09:30:48;93324.16;;;23.59;30.52
65359;BME280;52491;45.900;6.346;2023-01-15T09:33:13;93327.63;;;23.60;29.90
65359;BME280;52491;45.900;6.346;2023-01-15T09:35:41;93319.63;;;23.60;30.13
65359;BME280;52491;45.900;6.346;2023-01-15T09:38:12;93336.38;;;23.60;30.33
65359;BME280;52491;45.900;6.346;2023-01-15T09:40:52;93365.41;;;23.62;29.97
65359;BME280;52491;45.900;6.346;2023-01-15T09:43:48;93347.31;;;23.59;30.03
65359;BME280;52491;45.900;6.346;2023-01-15T09:46:24;93357.16;;;23.58;29.85
65359;BME280;52491;45.900;6.346;2023-01-15T09:57:24;93449.75;;;23.56;30.13
65359;BME280;52491;45.900;6.346;2023-01-15T09:59:52;93462.00;;;23.57;30.15
65359;BME280;52491;45.900;6.346;2023-01-15T10:03:00;93480.91;;;23.56;30.04
65359;BME280;52491;45.900;6.346;2023-01-15T10:05:49;93470.78;;;23.53;29.81
65359;BME280;52491;45.900;6.346;2023-01-15T10:08:24;93484.09;;;23.53;29.49
65359;BME280;52491;45.900;6.346;2023-01-15T10:11:37;93482.75;;;23.45;29.92
65359;BME280;52491;45.900;6.346;2023-01-15T10:13:51;93502.44;;;23.49;29.32
65359;BME280;52491;45.900;6.346;2023-01-15T10:16:28;93498.72;;;23.50;29.57
65359;BME280;52491;45.900;6.346;2023-01-15T10:18:56;93529.34;;;23.53;29.24
65359;BME280;52491;45.900;6.346;2023-01-15T10:21:39;93527.72;;;23.52;29.24
65359;BME280;52491;45.900;6.346;2023-01-15T10:26:53;93547.94;;;23.48;29.23
65359;BME280;52491;45.900;6.346;2023-01-15T10:29:45;93526.66;;;23.48;29.12
65359;BME280;52491;45.900;6.346;2023-01-15T10:37:27;93551.13;;;23.55;29.27
65359;BME280;52491;45.900;6.346;2023-01-15T10:42:56;93553.78;;;23.55;29.31
65359;BME280;52491;45.900;6.346;2023-01-15T10:45:39;93558.06;;;23.56;29.80
65359;BME280;52491;45.900;6.346;2023-01-15T10:51:29;93576.16;;;23.64;29.81
65359;BME280;52491;45.900;6.346;2023-01-15T10:54:02;93575.63;;;23.62;29.52
65359;BME280;52491;45.900;6.346;2023-01-15T10:57:08;93586.50;;;23.55;29.15
65359;BME280;52491;45.900;6.346;2023-01-15T10:59:51;93566.59;;;23.53;29.77
65359;BME280;52491;45.900;6.346;2023-01-15T11:05:02;93563.91;;;23.58;29.75
65359;BME280;52491;45.900;6.346;2023-01-15T11:07:41;93562.56;;;23.60;29.91
65359;BME280;52491;45.900;6.346;2023-01-15T11:10:12;93564.19;;;23.61;29.86
65359;BME280;52491;45.900;6.346;2023-01-15T11:12:41;93567.38;;;23.63;30.03
65359;BME280;52491;45.900;6.346;2023-01-15T11:15:28;93566.03;;;23.66;30.14
65359;BME280;52491;45.900;6.346;2023-01-15T11:18:25;93561.00;;;23.70;30.23
65359;BME280;52491;45.900;6.346;2023-01-15T11:21:21;93568.50;;;23.73;30.17
65359;BME280;52491;45.900;6.346;2023-01-15T11:23:48;93584.97;;;23.75;30.36
65359;BME280;52491;45.900;6.346;2023-01-15T11:26:25;93580.72;;;23.79;30.42
65359;BME280;52491;45.900;6.346;2023-01-15T11:28:52;93573.53;;;23.79;30.76
65359;BME280;52491;45.900;6.346;2023-01-15T11:31:19;93578.59;;;23.81;30.73
65359;BME280;52491;45.900;6.346;2023-01-15T11:33:57;93582.31;;;23.85;30.61
65359;BME280;52491;45.900;6.346;2023-01-15T11:36:25;93577.25;;;23.83;30.78
65359;BME280;52491;45.900;6.346;2023-01-15T11:38:51;93577.78;;;23.85;30.79
65359;BME280;52491;45.900;6.346;2023-01-15T11:44:12;93584.19;;;23.89;31.34
65359;BME280;52491;45.900;6.346;2023-01-15T11:46:57;93583.13;;;23.90;31.16
65359;BME280;52491;45.900;6.346;2023-01-15T11:49:54;93592.69;;;23.92;31.34
65359;BME280;52491;45.900;6.346;2023-01-15T11:52:49;93592.44;;;23.93;31.57
65359;BME280;52491;45.900;6.346;2023-01-15T11:55:18;93592.69;;;23.97;31.65
65359;BME280;52491;45.900;6.346;2023-01-15T11:57:45;93600.44;;;23.98;31.14
65359;BME280;52491;45.900;6.346;2023-01-15T12:00:27;93599.91;;;24.01;31.26
65359;BME280;52491;45.900;6.346;2023-01-15T12:02:58;93600.69;;;24.02;31.08
65359;BME280;52491;45.900;6.346;2023-01-15T12:05:31;93601.22;;;24.04;31.11
65359;BME280;52491;45.900;6.346;2023-01-15T12:08:01;93602.03;;;24.04;31.40
65359;BME280;52491;45.900;6.346;2023-01-15T12:10:37;93600.94;;;24.05;31.05
65359;BME280;52491;45.900;6.346;2023-01-15T12:13:36;93610.81;;;24.05;31.42
65359;BME280;52491;45.900;6.346;2023-01-15T12:19:31;93603.91;;;24.09;31.30
65359;BME280;52491;45.900;6.346;2023-01-15T12:22:38;93606.28;;;24.10;31.05
65359;BME280;52491;45.900;6.346;2023-01-15T12:32:41;93617.19;;;24.14;31.45
65359;BME280;52491;45.900;6.346;2023-01-15T12:35:17;93616.16;;;24.15;31.77
65359;BME280;52491;45.900;6.346;2023-01-15T12:37:58;93612.16;;;24.18;31.27
65359;BME280;52491;45.900;6.346;2023-01-15T12:40:37;93608.41;;;24.19;31.09
65359;BME280;52491;45.900;6.346;2023-01-15T12:43:14;93601.75;;;24.21;31.67
65359;BME280;52491;45.900;6.346;2023-01-15T12:45:59;93619.59;;;24.21;31.26
65359;BME280;52491;45.900;6.346;2023-01-15T12:48:41;93610.28;;;24.23;31.90
65359;BME280;52491;45.900;6.346;2023-01-15T12:51:13;93613.19;;;24.27;31.37
65359;BME280;52491;45.900;6.346;2023-01-15T12:53:45;93615.63;;;24.28;31.39
65359;BME280;52491;45.900;6.346;2023-01-15T12:56:18;93604.41;;;24.31;31.61
65359;BME280;52491;45.900;6.346;2023-01-15T13:06:22;93617.19;;;24.34;31.44
65359;BME280;52491;45.900;6.346;2023-01-15T13:09:47;93620.66;;;24.35;31.50
65359;BME280;52491;45.900;6.346;2023-01-15T13:12:14;93630.22;;;24.41;31.30
65359;BME280;52491;45.900;6.346;2023-01-15T13:14:41;93626.78;;;24.41;30.90
65359;BME280;52491;45.900;6.346;2023-01-15T13:20:56;93614.53;;;24.45;31.10
65359;BME280;52491;45.900;6.346;2023-01-15T13:26:45;93604.16;;;24.48;31.28
65359;BME280;52491;45.900;6.346;2023-01-15T13:32:12;93604.41;;;24.57;31.01
65359;BME280;52491;45.900;6.346;2023-01-15T13:37:19;93618.50;;;24.58;31.03
65359;BME280;52491;45.900;6.346;2023-01-15T13:39:49;93626.25;;;24.59;30.96
65359;BME280;52491;45.900;6.346;2023-01-15T13:42:21;93624.38;;;24.60;30.92
65359;BME280;52491;45.900;6.346;2023-01-15T13:45:52;93634.50;;;24.58;31.02
65359;BME280;52491;45.900;6.346;2023-01-15T13:48:06;93633.72;;;24.57;31.34
65359;BME280;52491;45.900;6.346;2023-01-15T13:50:40;93631.03;;;24.62;31.12
65359;BME280;52491;45.900;6.346;2023-01-15T13:53:29;93637.72;;;24.65;31.39
65359;BME280;52491;45.900;6.346;2023-01-15T13:56:01;93637.97;;;24.68;31.47
65359;BME280;52491;45.900;6.346;2023-01-15T13:58:36;93638.75;;;24.74;31.34
65359;BME280;52491;45.900;6.346;2023-01-15T14:03:58;93634.72;;;24.82;31.43
65359;BME280;52491;45.900;6.346;2023-01-15T14:09:09;93631.78;;;24.83;31.15
65359;BME280;52491;45.900;6.346;2023-01-15T14:11:38;93634.44;;;24.83;31.01
65359;BME280;52491;45.900;6.346;2023-01-15T14:14:21;93642.19;;;24.85;31.22
65359;BME280;52491;45.900;6.346;2023-01-15T14:28:05;93622.97;;;24.93;31.42
65359;BME280;52491;45.900;6.346;2023-01-15T14:31:03;93613.59;;;24.95;31.47
65359;BME280;52491;45.900;6.346;2023-01-15T14:36:28;93620.53;;;24.96;31.01
65359;BME280;52491;45.900;6.346;2023-01-15T14:38:58;93621.06;;;24.98;30.96
65359;BME280;52491;45.900;6.346;2023-01-15T14:41:30;93618.38;;;25.04;31.30
65359;BME280;52491;45.900;6.346;2023-01-15T14:43:59;93619.69;;;25.06;31.07
65359;BME280;52491;45.900;6.346;2023-01-15T14:46:30;93621.81;;;25.09;30.85
65359;BME280;52491;45.900;6.346;2023-01-15T14:49:02;93629.56;;;25.11;31.18
65359;BME280;52491;45.900;6.346;2023-01-15T14:53:57;93629.84;;;25.14;30.97
65359;BME280;52491;45.900;6.346;2023-01-15T14:59:35;93634.06;;;25.20;30.69
65359;BME280;52491;45.900;6.346;2023-01-15T15:02:17;93631.94;;;25.17;30.66